Главная страница
METAR-TAF:

METAR-TAF

Аэропорты :

Liverpool Bay, Северо-Западные Территории, Канада

широта: 69-36N, долгота: 130-54W, высота над уровнем моря: 102 м

Текущие метеонаблюдения

Эта сводка был подготовлена 13 минут назад, в 12:00 UTC
Ветер 8 Узел от северный
Температура 7°C
Влажность 93%
Давление 1005 hPa
Сплошная облачность на высоте 4500 фута

METAR: CWLI 191200Z AUTO 36008KT ////SM //// OVC045 07/06 A2967

Время: 06:13 (12:13 UTC)


TAF: отсутствует

Метеонаблюдения и прогнозы для более 4000 аэропортов (сводки METAR и TAF).

Имеющиеся станции представлены на карте желтыми и красными точками.

Чтобы увидеть название станции, наведите на нее мышь.

Затем щелкните, чтобы увидеть метеонаблюдения и метеопрогнозы.

Управление картой: чтобы увеличить масштаб, щелкните зеленые кнопки с черным крестиком; чтобы уменьшить масштаб, щелкните зеленую кнопку с тире; для просмотра соседних карт щелкайте зеленые стрелки.


METAR-TAF: